Time;durP1;ratioP1;P1;durP2;ratioP2;P2;SDS_P1;SDS_P2;PMS_P1;PMS_P2;Temp;Humidity;BMP_temperature;BMP_pressure;BME280_temperature;BME280_humidity;BME280_pressure;Samples;Min_cycle;Max_cycle;Signal;HPM_P1;HPM_P2
2022/11/15 00:00:09;;;;;;;42.60;26.13;;;;;;;8.15;100.00;101272.00;5032615;28;20028;-75
2022/11/15 00:02:54;;;;;;;35.40;22.27;;;;;;;8.12;100.00;101276.97;5051751;28;20028;-69
2022/11/15 00:05:20;;;;;;;28.65;18.17;;;;;;;7.38;100.00;101181.75;5009301;28;20038;-69
2022/11/15 00:07:45;;;;;;;26.27;18.00;;;;;;;7.36;100.00;101197.84;5009498;28;20040;-69
2022/11/15 00:10:11;;;;;;;23.67;17.15;;;;;;;7.72;100.00;101271.16;5009538;28;20180;-67
2022/11/15 00:12:37;;;;;;;23.63;16.77;;;;;;;7.70;100.00;101277.91;5009455;28;20494;-69
2022/11/15 00:15:02;;;;;;;25.83;16.70;;;;;;;7.59;100.00;101294.34;5009483;28;20049;-69
2022/11/15 00:17:28;;;;;;;28.00;17.80;;;;;;;7.54;100.00;101276.06;5009397;28;20531;-69
2022/11/15 00:19:53;;;;;;;26.70;16.95;;;;;;;7.38;100.00;101274.22;5009364;28;20736;-67
2022/11/15 00:22:19;;;;;;;31.50;17.85;;;;;;;7.35;100.00;101271.47;5009248;28;20049;-69
2022/11/15 00:24:44;;;;;;;30.55;18.45;;;;;;;7.28;100.00;101270.19;5009286;28;20393;-69
2022/11/15 00:27:09;;;;;;;43.30;18.48;;;;;;;7.00;100.00;101228.16;5009257;28;20502;-70
2022/11/15 00:29:37;;;;;;;44.38;18.83;;;;;;;7.12;100.00;101267.44;5009010;28;20066;-69
2022/11/15 00:32:02;;;;;;;32.38;19.55;;;;;;;6.34;100.00;101142.69;5008918;28;20045;-67
2022/11/15 00:34:28;;;;;;;32.30;18.65;;;;;;;7.07;100.00;101262.00;5008986;28;20041;-68
2022/11/15 00:36:53;;;;;;;35.10;19.63;;;;;;;7.07;100.00;101259.44;5039988;28;20039;-68
2022/11/15 00:39:18;;;;;;;38.33;19.13;;;;;;;6.70;100.00;101230.53;5050433;28;20029;-69
2022/11/15 00:41:44;;;;;;;42.25;18.52;;;;;;;6.76;100.00;101260.03;5051208;28;20114;-69
2022/11/15 00:44:09;;;;;;;32.20;17.42;;;;;;;6.48;100.00;101234.25;5050920;28;20128;-68
2022/11/15 00:46:35;;;;;;;42.53;17.88;;;;;;;6.60;100.00;101268.44;5050874;28;20039;-68
2022/11/15 00:49:00;;;;;;;31.63;18.83;;;;;;;6.54;100.00;101252.63;5051096;28;20479;-69
2022/11/15 00:51:25;;;;;;;33.17;19.40;;;;;;;6.45;100.00;101252.88;5048774;28;20041;-69
2022/11/15 00:53:51;;;;;;;33.03;18.80;;;;;;;6.42;100.00;101262.94;5050602;28;20029;-69
2022/11/15 00:56:16;;;;;;;32.25;18.08;;;;;;;6.37;100.00;101245.47;5050927;28;20498;-69
2022/11/15 00:58:41;;;;;;;31.35;18.45;;;;;;;6.12;100.00;101202.84;5050816;28;20119;-69
2022/11/15 01:01:12;;;;;;;33.42;19.88;;;;;;;6.22;100.00;101209.44;5050805;28;20079;-69
2022/11/15 01:03:39;;;;;;;37.88;20.00;;;;;;;6.48;100.00;101250.53;5050794;28;20032;-68
2022/11/15 01:06:05;;;;;;;34.05;18.65;;;;;;;6.48;100.00;101236.84;5050561;28;20021;-69
2022/11/15 01:08:31;;;;;;;29.20;18.90;;;;;;;6.51;100.00;101238.72;5050389;28;20495;-69
2022/11/15 01:11:11;;;;;;;29.05;20.20;;;;;;;6.51;100.00;101237.03;5050544;28;20028;-68
2022/11/15 01:13:38;;;;;;;33.15;20.83;;;;;;;6.48;100.00;101231.69;5050512;28;20033;-69
2022/11/15 01:16:13;;;;;;;31.83;20.13;;;;;;;6.50;100.00;101231.78;5050212;28;20029;-69
2022/11/15 01:18:39;;;;;;;29.00;20.88;;;;;;;6.46;100.00;101233.25;5050536;28;20025;-69
2022/11/15 01:21:10;;;;;;;30.38;20.17;;;;;;;6.08;100.00;101168.41;5050621;28;20399;-68
2022/11/15 01:23:36;;;;;;;35.38;20.45;;;;;;;6.13;100.00;101179.84;5050475;28;20402;-69
2022/11/15 01:26:03;;;;;;;33.17;20.38;;;;;;;6.37;100.00;101213.03;5050171;28;20500;-69
2022/11/15 01:28:31;;;;;;;29.77;20.17;;;;;;;6.37;100.00;101204.44;5015013;28;20048;-68
2022/11/15 01:31:01;;;;;;;31.27;20.80;;;;;;;5.79;100.00;101121.16;5050400;28;20064;-68
2022/11/15 01:33:27;;;;;;;28.45;20.15;;;;;;;6.45;100.00;101224.66;5047002;28;20411;-69
2022/11/15 01:35:53;;;;;;;30.90;20.58;;;;;;;6.52;100.00;101225.97;5032333;28;20033;-69
2022/11/15 01:38:18;;;;;;;28.85;20.08;;;;;;;6.52;100.00;101225.06;5050073;28;20032;-69
2022/11/15 01:40:44;;;;;;;29.55;20.30;;;;;;;6.53;100.00;101216.59;5050016;28;20035;-69
2022/11/15 01:43:39;;;;;;;27.98;20.27;;;;;;;6.57;100.00;101216.03;5049982;28;20031;-69
2022/11/15 01:46:21;;;;;;;30.85;21.10;;;;;;;6.58;100.00;101210.97;4969090;28;20043;-69
2022/11/15 01:48:49;;;;;;;29.05;19.88;;;;;;;6.47;100.00;101184.63;4968913;28;20458;-68
2022/11/15 01:51:17;;;;;;;30.13;20.42;;;;;;;6.64;100.00;101213.03;4969566;28;20497;-68
2022/11/15 01:53:47;;;;;;;29.05;20.55;;;;;;;6.70;100.00;101212.56;4972905;28;20041;-69
2022/11/15 01:56:20;;;;;;;31.85;22.75;;;;;;;6.70;100.00;101212.56;4972891;28;20042;-69
2022/11/15 01:58:46;;;;;;;29.38;20.60;;;;;;;6.60;100.00;101198.25;4956664;28;20038;-69
2022/11/15 02:01:13;;;;;;;27.65;20.02;;;;;;;6.69;100.00;101208.22;4972745;28;20035;-69
2022/11/15 02:04:08;;;;;;;29.77;20.67;;;;;;;6.69;100.00;101206.56;4972677;28;20047;-69
2022/11/15 02:06:35;;;;;;;27.40;18.95;;;;;;;5.96;100.00;101080.41;4934135;29;20057;-68
2022/11/15 02:09:01;;;;;;;32.65;21.80;;;;;;;6.68;100.00;101219.25;4934138;29;20075;-69
2022/11/15 02:11:27;;;;;;;26.98;20.23;;;;;;;6.54;100.00;101182.47;4934142;29;20606;-68
2022/11/15 02:13:54;;;;;;;31.10;21.33;;;;;;;6.63;100.00;101190.75;4934202;29;20110;-69
2022/11/15 02:16:39;;;;;;;28.92;19.95;;;;;;;6.72;100.00;101216.13;4934085;29;20047;-68
2022/11/15 02:19:28;;;;;;;28.92;20.42;;;;;;;6.64;100.00;101208.81;4934100;29;20067;-69
2022/11/15 02:22:08;;;;;;;28.92;19.05;;;;;;;6.58;100.00;101200.72;4949345;28;20116;-68
2022/11/15 02:24:34;;;;;;;25.08;16.77;;;;;;;6.53;100.00;101207.22;4991627;28;20097;-69
2022/11/15 02:27:05;;;;;;;36.53;19.10;;;;;;;6.45;100.00;101206.72;4991784;28;20053;-69
2022/11/15 02:30:07;;;;;;;27.48;18.83;;;;;;;6.51;100.00;101195.97;4991616;28;20046;-69
2022/11/15 02:32:49;;;;;;;24.88;18.25;;;;;;;6.52;100.00;101201.97;4991667;28;20116;-69
2022/11/15 02:35:37;;;;;;;29.10;19.27;;;;;;;5.92;100.00;101116.88;4991800;28;20046;-69
2022/11/15 02:38:16;;;;;;;29.30;19.27;;;;;;;6.41;100.00;101198.72;4975056;28;20042;-69
2022/11/15 02:41:02;;;;;;;28.05;19.15;;;;;;;6.32;100.00;101201.59;4991652;28;20034;-69
2022/11/15 02:43:59;;;;;;;30.33;20.10;;;;;;;6.41;100.00;101196.16;5022275;28;20033;-69
2022/11/15 02:49:32;;;;;;;29.17;19.60;;;;;;;6.40;100.00;101199.53;5053161;28;20051;-70
2022/11/15 02:51:57;;;;;;;30.70;19.02;;;;;;;6.40;100.00;101200.41;5053389;28;20029;-69
2022/11/15 02:54:26;;;;;;;31.35;19.67;;;;;;;6.44;100.00;101199.81;5053024;28;20114;-69
2022/11/15 02:56:55;;;;;;;27.08;18.13;;;;;;;6.39;100.00;101200.31;5053295;28;20402;-67
2022/11/15 02:59:49;;;;;;;31.17;19.60;;;;;;;6.32;100.00;101196.47;5052961;28;20021;-69
2022/11/15 03:02:14;;;;;;;28.80;18.60;;;;;;;5.52;100.00;101066.44;5052363;28;20048;-69
2022/11/15 03:04:40;;;;;;;27.70;19.10;;;;;;;6.30;100.00;101196.34;5053105;28;20021;-71
2022/11/15 03:07:29;;;;;;;28.38;18.25;;;;;;;6.36;100.00;101187.28;5052997;28;20499;-68
2022/11/15 03:09:57;;;;;;;27.67;17.98;;;;;;;5.87;100.00;101082.38;5052250;28;20079;-68
2022/11/15 03:12:34;;;;;;;33.47;21.20;;;;;;;6.48;100.00;101186.41;5052785;28;20029;-68
2022/11/15 03:15:24;;;;;;;32.45;19.25;;;;;;;6.44;100.00;101184.44;5052710;28;20047;-69
2022/11/15 03:17:53;;;;;;;30.15;19.30;;;;;;;6.28;100.00;101167.16;5052755;28;20104;-69
2022/11/15 03:20:19;;;;;;;28.08;19.17;;;;;;;6.42;100.00;101192.81;5052792;28;20123;-69
2022/11/15 03:22:47;;;;;;;29.10;20.25;;;;;;;6.28;100.00;101164.59;5052704;28;20121;-69
2022/11/15 03:25:19;;;;;;;29.08;19.80;;;;;;;6.32;100.00;101133.22;5052274;28;20017;-67
2022/11/15 03:27:50;;;;;;;31.08;19.95;;;;;;;6.49;100.00;101169.31;5052633;28;20032;-69
2022/11/15 03:30:16;;;;;;;29.98;18.50;;;;;;;6.52;100.00;101172.09;5051893;28;20419;-68
2022/11/15 03:32:55;;;;;;;29.00;18.67;;;;;;;5.96;100.00;101073.59;5052332;28;20115;-69
2022/11/15 03:35:23;;;;;;;27.02;17.48;;;;;;;6.55;100.00;101167.16;5052028;28;20761;-67
2022/11/15 03:38:09;;;;;;;33.88;21.85;;;;;;;6.62;100.00;101173.59;5052308;28;20116;-69
2022/11/15 03:40:39;;;;;;;35.97;21.70;;;;;;;6.64;100.00;101170.31;5052159;28;20029;-69
2022/11/15 03:43:08;;;;;;;36.42;21.35;;;;;;;6.54;100.00;101169.63;5052624;28;20029;-69
2022/11/15 03:45:42;;;;;;;43.10;23.75;;;;;;;5.80;100.00;101046.09;5052100;28;20035;-69
2022/11/15 03:48:14;;;;;;;44.42;23.58;;;;;;;5.70;100.00;101063.34;5052215;28;20443;-69
2022/11/15 03:50:41;;;;;;;50.03;24.33;;;;;;;6.26;100.00;101172.97;5051906;28;20395;-70
2022/11/15 03:53:08;;;;;;;44.05;24.13;;;;;;;6.31;100.00;101162.22;5050735;28;20483;-69
2022/11/15 03:55:33;;;;;;;55.47;25.95;;;;;;;6.32;100.00;101158.88;5051794;28;20098;-69
2022/11/15 03:58:00;;;;;;;53.60;24.10;;;;;;;6.30;100.00;101152.72;5009638;28;20046;-69
2022/11/15 04:00:27;;;;;;;52.65;26.08;;;;;;;6.27;100.00;101160.25;5009462;28;20042;-70
2022/11/15 04:02:52;;;;;;;52.60;27.50;;;;;;;6.23;100.00;101162.50;4992942;28;20505;-70
2022/11/15 04:05:18;;;;;;;58.90;28.70;;;;;;;6.29;100.00;101155.22;5007547;28;20072;-72
2022/11/15 04:07:43;;;;;;;54.92;28.95;;;;;;;6.29;100.00;101153.56;5009585;28;20142;-69
2022/11/15 04:10:10;;;;;;;52.70;27.70;;;;;;;6.31;100.00;101151.94;5009544;28;20436;-69
2022/11/15 04:12:40;;;;;;;53.85;27.60;;;;;;;6.46;100.00;101157.19;5009454;28;20049;-70
2022/11/15 04:15:13;;;;;;;46.55;25.77;;;;;;;6.54;100.00;101154.22;5008254;28;20029;-70
2022/11/15 04:17:40;;;;;;;52.20;26.15;;;;;;;6.60;100.00;101154.63;5009223;28;20045;-70
2022/11/15 04:25:55;;;;;;;47.17;25.52;;;;;;;6.66;100.00;101146.44;5009529;28;20076;-67
2022/11/15 04:28:21;;;;;;;50.45;26.75;;;;;;;5.34;100.00;100921.03;5018081;28;20041;-70
2022/11/15 04:30:47;;;;;;;52.92;26.63;;;;;;;6.72;100.00;101157.97;5050933;28;20128;-69
2022/11/15 04:33:12;;;;;;;54.90;27.30;;;;;;;6.72;100.00;101145.16;5051363;28;20108;-69
2022/11/15 04:35:38;;;;;;;48.10;26.55;;;;;;;6.68;100.00;101137.16;5033323;28;20573;-69
2022/11/15 04:38:05;;;;;;;50.08;28.10;;;;;;;6.89;100.00;101146.22;5050963;28;20649;-68
2022/11/15 04:40:31;;;;;;;52.15;27.38;;;;;;;6.91;100.00;101143.75;5051146;28;20029;-68
2022/11/15 04:42:58;;;;;;;48.40;26.80;;;;;;;6.92;100.00;101150.66;5051034;28;20043;-68
2022/11/15 04:45:24;;;;;;;50.33;27.15;;;;;;;7.02;100.00;101144.41;5050968;28;20378;-69
2022/11/15 04:47:49;;;;;;;52.80;27.50;;;;;;;7.05;100.00;101147.16;5050996;28;20471;-69
2022/11/15 04:50:15;;;;;;;49.85;27.15;;;;;;;7.09;100.00;101141.41;5050813;28;20490;-69
2022/11/15 04:52:42;;;;;;;52.42;27.92;;;;;;;7.11;100.00;101145.84;5050760;28;20040;-69
2022/11/15 04:55:11;;;;;;;49.75;27.55;;;;;;;7.18;100.00;101149.72;5050655;28;20033;-69
2022/11/15 04:57:37;;;;;;;51.63;28.77;;;;;;;7.22;100.00;101146.53;5033113;28;20025;-69
2022/11/15 05:00:11;;;;;;;56.92;28.58;;;;;;;7.10;100.00;101138.06;5050430;28;20650;-68
2022/11/15 05:05:21;;;;;;;56.35;29.15;;;;;;;6.97;100.00;101145.00;5050772;28;20040;-68
2022/11/15 05:07:47;;;;;;;57.92;29.13;;;;;;;6.94;100.00;101143.91;5049760;28;20028;-69
2022/11/15 05:10:12;;;;;;;55.33;29.27;;;;;;;6.89;100.00;101150.44;5050453;28;20029;-69
2022/11/15 05:12:38;;;;;;;59.10;29.77;;;;;;;6.19;100.00;101025.53;4988590;28;20096;-68
2022/11/15 05:15:04;;;;;;;55.35;27.10;;;;;;;7.00;100.00;101151.13;4988797;28;20117;-68
2022/11/15 05:17:29;;;;;;;58.83;29.33;;;;;;;7.03;100.00;101154.78;4988181;28;20496;-72
2022/11/15 05:19:55;;;;;;;54.20;28.35;;;;;;;7.06;100.00;101147.25;4988799;28;20078;-69
2022/11/15 05:22:21;;;;;;;56.17;28.95;;;;;;;7.07;100.00;101145.59;4995713;28;20624;-69
2022/11/15 05:24:46;;;;;;;60.63;28.67;;;;;;;7.01;100.00;101129.81;4993644;28;20105;-69
2022/11/15 05:27:12;;;;;;;61.50;29.35;;;;;;;7.07;100.00;101153.28;4988453;28;20042;-69
2022/11/15 05:29:37;;;;;;;60.78;31.55;;;;;;;7.08;100.00;101160.22;4988306;28;20402;-69
2022/11/15 05:32:08;;;;;;;63.45;29.75;;;;;;;7.09;100.00;101143.97;4988489;28;20125;-74
2022/11/15 05:34:33;;;;;;;55.55;29.55;;;;;;;5.79;100.00;100918.75;4988492;28;20574;-69
2022/11/15 05:36:59;;;;;;;58.28;28.60;;;;;;;7.11;100.00;101145.84;4988589;28;20039;-67
2022/11/15 05:39:25;;;;;;;63.67;30.95;;;;;;;7.01;100.00;101150.34;4988459;28;20042;-69
2022/11/15 05:42:11;;;;;;;64.45;29.75;;;;;;;7.02;100.00;101134.16;4988177;28;20042;-69
2022/11/15 05:44:40;;;;;;;59.45;30.38;;;;;;;7.07;100.00;101153.28;5026401;28;20102;-69
2022/11/15 05:47:10;;;;;;;63.53;31.42;;;;;;;7.07;100.00;101156.72;5049746;28;20044;-69
2022/11/15 05:49:38;;;;;;;66.30;30.98;;;;;;;7.12;100.00;101159.59;5050411;28;20087;-68
2022/11/15 05:52:07;;;;;;;68.38;31.85;;;;;;;7.14;100.00;101160.59;5046095;28;20095;-71
2022/11/15 05:54:34;;;;;;;72.00;35.40;;;;;;;7.10;100.00;101148.34;5044669;28;20107;-69
2022/11/15 05:57:00;;;;;;;80.60;41.08;;;;;;;7.16;100.00;101168.38;5039207;28;20391;-70
2022/11/15 05:59:28;;;;;;;72.07;34.67;;;;;;;7.22;100.00;101177.34;5041376;28;20035;-70
2022/11/15 06:01:53;;;;;;;69.60;32.75;;;;;;;7.24;100.00;101172.28;5035935;28;20491;-69
2022/11/15 06:04:18;;;;;;;73.63;31.52;;;;;;;7.22;100.00;101168.75;5039921;28;20113;-70
2022/11/15 06:06:44;;;;;;;69.70;31.55;;;;;;;7.19;100.00;101168.56;5038614;28;20033;-70
2022/11/15 06:09:09;;;;;;;73.80;33.72;;;;;;;7.22;100.00;101169.63;5040503;28;20083;-69
2022/11/15 06:11:34;;;;;;;71.60;32.72;;;;;;;7.25;100.00;101169.84;5047747;28;20036;-69
2022/11/15 06:14:00;;;;;;;73.00;35.28;;;;;;;7.27;100.00;101173.38;5049892;28;20036;-69
2022/11/15 06:16:26;;;;;;;74.13;33.80;;;;;;;7.31;100.00;101169.31;5050038;28;20037;-70
2022/11/15 06:18:52;;;;;;;72.72;31.98;;;;;;;7.12;100.00;101147.63;5049894;28;20021;-69
2022/11/15 06:21:17;;;;;;;76.70;32.72;;;;;;;7.17;100.00;101158.19;5049717;28;20094;-69
2022/11/15 06:23:42;;;;;;;77.28;33.50;;;;;;;7.34;100.00;101173.75;5049753;28;20415;-69
2022/11/15 06:26:08;;;;;;;78.82;33.25;;;;;;;7.32;100.00;101167.66;5014454;28;20402;-69
2022/11/15 06:28:33;;;;;;;78.20;34.28;;;;;;;6.57;100.00;101045.00;5039332;28;20040;-69
2022/11/15 06:31:07;;;;;;;73.53;33.30;;;;;;;7.37;100.00;101172.25;5038777;28;20041;-70
2022/11/15 06:33:32;;;;;;;76.97;33.28;;;;;;;7.43;100.00;101174.31;5039277;28;20025;-69
2022/11/15 06:36:06;;;;;;;79.60;32.85;;;;;;;7.32;100.00;101155.69;5033318;28;20450;-68
2022/11/15 06:38:32;;;;;;;83.15;33.45;;;;;;;7.37;100.00;101164.56;5032245;28;20396;-69
2022/11/15 06:41:02;;;;;;;91.43;34.90;;;;;;;7.37;100.00;101176.53;5031988;28;20029;-69
2022/11/15 06:43:29;;;;;;;87.70;34.42;;;;;;;7.28;100.00;101153.72;4998310;28;20411;-69
2022/11/15 06:45:54;;;;;;;85.82;35.28;;;;;;;7.38;100.00;101171.47;5033389;28;20034;-69
2022/11/15 06:48:21;;;;;;;85.65;35.88;;;;;;;7.16;100.00;101143.56;5033266;28;20041;-69
2022/11/15 06:50:51;;;;;;;94.13;36.13;;;;;;;7.34;100.00;101174.66;5033122;28;20049;-70
2022/11/15 06:53:17;;;;;;;86.95;33.70;;;;;;;7.33;100.00;101182.25;5033179;28;20061;-69
2022/11/15 06:55:43;;;;;;;95.35;37.72;;;;;;;7.38;100.00;101180.88;5032978;28;20472;-70
2022/11/15 06:58:08;;;;;;;103.18;44.38;;;;;;;7.34;100.00;101153.19;5032840;28;20451;-69
2022/11/15 07:00:34;;;;;;;94.20;38.38;;;;;;;6.68;100.00;101030.28;5033202;28;20108;-69
2022/11/15 07:03:00;;;;;;;89.95;36.67;;;;;;;7.37;100.00;101153.41;5033066;28;20116;-70
2022/11/15 07:05:26;;;;;;;83.45;31.90;;;;;;;7.49;100.00;101173.78;5033124;28;20036;-70
2022/11/15 07:07:56;;;;;;;95.88;36.55;;;;;;;7.38;100.00;101170.59;5032571;28;20108;-69
2022/11/15 07:10:24;;;;;;;102.35;37.25;;;;;;;7.39;100.00;101162.97;5033130;28;20033;-69
2022/11/15 07:12:53;;;;;;;110.85;39.63;;;;;;;7.48;100.00;101160.06;5033017;28;20053;-69
2022/11/15 07:15:21;;;;;;;97.30;37.03;;;;;;;7.57;100.00;101162.31;5034487;28;20411;-69
2022/11/15 07:17:47;;;;;;;105.45;36.65;;;;;;;6.88;100.00;101035.72;5052646;28;20033;-70
2022/11/15 07:20:13;;;;;;;104.85;37.30;;;;;;;7.57;100.00;101134.91;5052622;28;20406;-70
2022/11/15 07:22:40;;;;;;;90.38;35.95;;;;;;;7.01;100.00;101029.69;5052608;28;20044;-70
2022/11/15 07:25:06;;;;;;;96.07;35.42;;;;;;;7.82;100.00;101162.09;5052586;28;20025;-69
2022/11/15 07:27:31;;;;;;;95.40;36.55;;;;;;;7.69;100.00;101131.31;5052586;28;20445;-69
2022/11/15 07:29:56;;;;;;;106.63;39.33;;;;;;;7.77;100.00;101160.94;5052286;28;20056;-69
2022/11/15 07:32:22;;;;;;;103.80;37.30;;;;;;;7.85;100.00;101166.53;5052261;28;20025;-70
2022/11/15 07:34:47;;;;;;;105.15;38.00;;;;;;;7.87;100.00;101162.38;5052115;28;20053;-68
2022/11/15 07:37:13;;;;;;;101.30;38.42;;;;;;;7.75;100.00;101136.81;5052140;28;20032;-69
2022/11/15 07:39:38;;;;;;;107.85;40.20;;;;;;;7.89;100.00;101141.09;5052315;28;20029;-70
2022/11/15 07:44:48;;;;;;;97.00;37.15;;;;;;;8.05;100.00;101157.41;5052114;28;20418;-69
2022/11/15 07:47:14;;;;;;;102.68;40.50;;;;;;;8.09;100.00;101152.53;5034129;28;20041;-69
2022/11/15 07:49:39;;;;;;;101.15;39.08;;;;;;;8.07;100.00;101145.53;5051725;28;20555;-69
2022/11/15 07:52:04;;;;;;;107.50;38.53;;;;;;;8.09;100.00;101157.69;5052270;28;20029;-69
2022/11/15 07:54:30;;;;;;;96.28;38.13;;;;;;;8.16;100.00;101148.66;5051952;28;20411;-70
2022/11/15 07:56:55;;;;;;;91.97;38.95;;;;;;;8.21;100.00;101151.47;5052219;28;20036;-69
2022/11/15 07:59:21;;;;;;;88.88;35.85;;;;;;;8.19;100.00;101151.38;5052028;28;20029;-69
2022/11/15 08:01:46;;;;;;;100.25;39.50;;;;;;;7.49;100.00;101033.41;5051875;28;20021;-69
2022/11/15 08:04:12;;;;;;;100.70;41.47;;;;;;;8.22;100.00;101156.72;5015068;28;20077;-69
2022/11/15 08:06:38;;;;;;;101.57;41.22;;;;;;;7.85;100.00;101097.09;5041563;28;20029;-68
2022/11/15 08:09:04;;;;;;;97.97;40.47;;;;;;;8.27;100.00;101159.53;5038888;28;20396;-71
2022/11/15 08:11:30;;;;;;;92.45;37.67;;;;;;;7.86;100.00;101071.50;5043225;28;20021;-73
2022/11/15 08:13:55;;;;;;;87.28;34.63;;;;;;;8.38;100.00;101160.16;5043487;28;20025;-69
2022/11/15 08:16:21;;;;;;;87.03;34.90;;;;;;;7.81;100.00;101057.47;5042149;28;20032;-69
2022/11/15 08:18:47;;;;;;;83.95;33.97;;;;;;;8.49;100.00;101163.38;5040586;28;20025;-69
2022/11/15 08:21:17;;;;;;;82.05;34.67;;;;;;;8.50;100.00;101158.31;5041154;28;20037;-69
2022/11/15 08:23:43;;;;;;;91.38;35.58;;;;;;;8.55;100.00;101161.16;5039474;28;20025;-69
2022/11/15 12:14:03;;;;;;;62.88;35.47;;;;;;;11.36;100.00;100866.78;5006233;28;20057;-77
2022/11/15 12:16:32;;;;;;;66.93;39.90;;;;;;;11.48;100.00;100864.69;5010841;28;20041;-77
2022/11/15 12:19:03;;;;;;;44.63;30.33;;;;;;;11.48;100.00;100864.69;5010848;28;20034;-76
2022/11/15 12:21:51;;;;;;;54.72;32.80;;;;;;;11.30;100.00;100826.09;4996253;28;20093;-74
2022/11/15 12:24:26;;;;;;;54.08;34.80;;;;;;;11.58;100.00;100859.91;4997891;28;20046;-74
2022/11/15 12:27:07;;;;;;;41.55;29.92;;;;;;;11.52;100.00;100857.06;5010978;28;20076;-74
2022/11/15 12:29:38;;;;;;;40.05;29.30;;;;;;;11.42;100.00;100843.75;5009948;28;20026;-74
2022/11/15 12:32:11;;;;;;;40.83;27.80;;;;;;;11.43;100.00;100847.25;4976266;28;20569;-70
2022/11/15 12:34:42;;;;;;;37.63;29.52;;;;;;;11.46;100.00;100850.84;5004312;28;20464;-70
2022/11/15 12:37:46;;;;;;;43.35;29.30;;;;;;;11.46;100.00;100850.84;5015431;28;20018;-70
2022/11/15 12:40:27;;;;;;;32.40;23.60;;;;;;;11.51;100.00;100845.81;4960422;28;20043;-72
2022/11/15 12:43:03;;;;;;;36.70;27.02;;;;;;;11.56;100.00;100846.00;4948095;28;20027;-73
2022/11/15 12:45:40;;;;;;;36.15;27.85;;;;;;;11.48;100.00;100844.00;4950421;28;20071;-73
2022/11/15 12:48:18;;;;;;;34.92;27.27;;;;;;;11.55;99.77;100834.81;4949855;28;20045;-72
2022/11/15 12:50:55;;;;;;;35.15;26.67;;;;;;;11.55;98.15;100829.63;4964137;28;20067;-71
2022/11/15 12:53:26;;;;;;;34.63;27.77;;;;;;;11.54;98.29;100829.53;4957669;28;20039;-70
2022/11/15 12:56:14;;;;;;;38.90;29.70;;;;;;;11.58;97.90;100834.03;4949798;29;20043;-71
2022/11/15 12:58:55;;;;;;;35.25;25.77;;;;;;;11.62;97.63;100830.72;4948227;28;20047;-72
2022/11/15 13:01:32;;;;;;;32.95;26.60;;;;;;;11.61;96.25;100824.69;4949103;28;20042;-73
2022/11/15 13:04:14;;;;;;;30.35;26.05;;;;;;;11.59;94.65;100833.19;4950304;29;20043;-70
2022/11/15 13:06:45;;;;;;;32.65;26.13;;;;;;;11.60;95.50;100822.03;4949301;28;20528;-69
2022/11/15 13:09:32;;;;;;;28.35;23.17;;;;;;;11.59;95.27;100817.66;4949056;28;20054;-70
2022/11/15 13:12:01;;;;;;;27.10;23.10;;;;;;;11.63;94.57;100817.84;4948650;28;20114;-73
2022/11/15 13:14:48;;;;;;;25.52;22.30;;;;;;;11.69;95.93;100814.63;4948262;28;20055;-72
2022/11/15 13:17:20;;;;;;;29.95;22.13;;;;;;;11.73;95.27;100808.75;4984509;28;20037;-69
2022/11/15 13:20:10;;;;;;;27.40;21.83;;;;;;;11.75;93.50;100809.69;5010325;28;20116;-73
2022/11/15 13:23:01;;;;;;;36.95;28.65;;;;;;;11.55;94.87;100759.81;5009908;28;20522;-74
2022/11/15 13:25:39;;;;;;;39.05;27.88;;;;;;;11.73;95.26;100808.75;5008637;28;20026;-73
2022/11/15 13:28:16;;;;;;;37.58;30.08;;;;;;;11.66;96.22;100804.16;5010435;28;20088;-73
2022/11/15 13:30:54;;;;;;;30.80;23.75;;;;;;;11.64;94.82;100791.19;5010245;28;20045;-73
2022/11/15 13:33:35;;;;;;;34.53;27.98;;;;;;;11.47;94.50;100764.66;5008738;28;20113;-72
2022/11/15 13:36:06;;;;;;;37.85;29.08;;;;;;;11.45;95.01;100770.59;5010110;28;20033;-73
2022/11/15 13:38:35;;;;;;;41.75;31.25;;;;;;;11.64;95.87;100801.53;5010490;28;20025;-72
2022/11/15 13:41:16;;;;;;;48.20;33.05;;;;;;;11.63;96.48;100794.59;5010215;28;20045;-72
2022/11/15 13:43:42;;;;;;;38.40;29.48;;;;;;;11.46;96.93;100762.94;5009250;28;20085;-73
2022/11/15 13:46:17;;;;;;;38.45;28.17;;;;;;;11.59;96.61;100786.63;5011479;28;20033;-71
2022/11/15 13:48:45;;;;;;;32.22;26.85;;;;;;;11.57;95.94;100780.56;5016824;28;20553;-72
2022/11/15 13:51:25;;;;;;;32.50;25.95;;;;;;;11.61;96.08;100790.19;5016587;28;20502;-72
2022/11/15 13:54:05;;;;;;;32.90;27.67;;;;;;;11.58;94.84;100788.34;5017067;28;20080;-72
2022/11/15 13:56:33;;;;;;;35.03;27.60;;;;;;;11.56;94.17;100784.81;5017122;28;20165;-71
2022/11/15 13:59:00;;;;;;;35.08;28.10;;;;;;;11.54;94.35;100772.66;5017309;28;20053;-72
2022/11/15 14:01:31;;;;;;;35.28;28.25;;;;;;;11.50;94.27;100769.06;5016708;28;20030;-72
2022/11/15 14:03:59;;;;;;;32.75;25.83;;;;;;;11.53;94.06;100769.22;5016985;28;20088;-72
2022/11/15 14:06:27;;;;;;;31.17;25.00;;;;;;;11.57;93.70;100770.22;5016868;28;20407;-72
2022/11/15 14:09:25;;;;;;;30.98;23.67;;;;;;;11.57;93.92;100757.28;5016889;28;20480;-72
2022/11/15 14:11:53;;;;;;;32.25;27.13;;;;;;;11.58;95.03;100761.63;4999362;28;20459;-72
2022/11/15 14:14:22;;;;;;;34.65;27.73;;;;;;;11.64;95.15;100759.28;5016468;28;20132;-71
2022/11/15 14:16:53;;;;;;;34.72;27.65;;;;;;;11.63;94.98;100753.19;5016719;28;20026;-72
2022/11/15 14:19:21;;;;;;;46.92;35.13;;;;;;;11.42;95.85;100706.75;5016941;28;20041;-72
2022/11/15 14:22:20;;;;;;;51.97;38.25;;;;;;;11.69;94.80;100747.38;5016839;28;20033;-72
2022/11/15 14:25:07;;;;;;;50.35;34.38;;;;;;;11.73;94.04;100750.97;4955819;28;20175;-72
2022/11/15 14:27:33;;;;;;;43.53;33.58;;;;;;;11.69;93.51;100737.03;4917333;29;20043;-72
2022/11/15 14:30:00;;;;;;;51.72;37.25;;;;;;;11.72;93.96;100734.56;4917580;29;20437;-72
2022/11/15 14:32:28;;;;;;;50.88;37.40;;;;;;;11.55;94.19;100710.69;4917840;29;20048;-72
2022/11/15 14:34:59;;;;;;;54.55;38.45;;;;;;;11.71;95.09;100729.34;4917454;29;20052;-72
2022/11/15 14:37:28;;;;;;;43.10;32.63;;;;;;;11.75;94.27;100728.63;4917525;29;20136;-72
2022/11/15 14:39:54;;;;;;;50.40;37.22;;;;;;;11.75;93.75;100732.09;4917622;29;20482;-72
2022/11/15 14:42:22;;;;;;;49.47;34.15;;;;;;;11.75;93.54;100728.63;4917495;29;20035;-72
2022/11/15 14:44:48;;;;;;;56.92;38.35;;;;;;;11.75;93.60;100718.25;4917598;29;20044;-72
2022/11/15 14:47:13;;;;;;;50.47;37.60;;;;;;;11.77;94.10;100716.63;4917435;29;20577;-72
2022/11/15 14:49:39;;;;;;;50.42;39.67;;;;;;;11.75;93.53;100719.16;4917549;29;20036;-72
2022/11/15 14:52:16;;;;;;;51.35;39.35;;;;;;;11.76;93.67;100714.84;4917531;29;20031;-72
2022/11/15 14:54:41;;;;;;;45.10;32.10;;;;;;;11.74;93.96;100707.06;4915514;29;20048;-72
2022/11/15 14:57:07;;;;;;;46.60;33.92;;;;;;;11.68;94.28;100708.56;4917462;29;20094;-71
2022/11/15 14:59:32;;;;;;;51.83;37.60;;;;;;;11.63;95.20;100708.38;4948465;29;20047;-71
2022/11/15 15:01:58;;;;;;;47.80;36.08;;;;;;;11.57;94.61;100701.25;5004614;28;20046;-71
2022/11/15 15:04:24;;;;;;;45.13;32.75;;;;;;;11.59;94.93;100706.47;5013376;28;20029;-71
2022/11/15 15:06:49;;;;;;;43.15;32.15;;;;;;;11.53;95.09;100707.16;5013221;28;20449;-71
2022/11/15 15:09:15;;;;;;;44.28;34.50;;;;;;;11.39;95.51;100679.91;5013322;28;20030;-71
2022/11/15 15:11:40;;;;;;;37.83;29.35;;;;;;;11.48;94.56;100701.81;5013155;28;20022;-71
2022/11/15 15:14:06;;;;;;;60.05;45.95;;;;;;;11.51;95.58;100706.19;5013037;28;20128;-71
2022/11/15 15:16:31;;;;;;;55.83;40.85;;;;;;;11.49;95.98;100716.50;5013077;28;20018;-71
2022/11/15 15:18:57;;;;;;;45.65;34.50;;;;;;;11.41;97.13;100710.16;5012866;28;20025;-71
2022/11/15 15:21:24;;;;;;;43.97;31.63;;;;;;;11.16;97.52;100678.25;5013071;28;20030;-71
2022/11/15 15:23:51;;;;;;;36.55;28.67;;;;;;;11.27;97.97;100701.00;5012980;28;20036;-71